sensor_id;sensor_type;location;lat;lon;timestamp;P1;durP1;ratioP1;P2;durP2;ratioP2
2408;SDS011;8463;48.094;7.970;2024-03-06T00:01:44;4.50;;;3.60;;
2408;SDS011;8463;48.094;7.970;2024-03-06T00:04:10;4.90;;;3.63;;
2408;SDS011;8463;48.094;7.970;2024-03-06T00:06:36;5.40;;;4.17;;
2408;SDS011;8463;48.094;7.970;2024-03-06T00:09:01;4.20;;;3.80;;
2408;SDS011;8463;48.094;7.970;2024-03-06T00:11:28;4.47;;;3.27;;
2408;SDS011;8463;48.094;7.970;2024-03-06T00:13:53;4.47;;;3.77;;
2408;SDS011;8463;48.094;7.970;2024-03-06T00:16:19;4.23;;;3.83;;
2408;SDS011;8463;48.094;7.970;2024-03-06T00:18:45;4.47;;;3.43;;
2408;SDS011;8463;48.094;7.970;2024-03-06T00:21:11;3.57;;;3.27;;
2408;SDS011;8463;48.094;7.970;2024-03-06T00:23:37;3.73;;;3.30;;
2408;SDS011;8463;48.094;7.970;2024-03-06T00:26:03;4.80;;;4.30;;
2408;SDS011;8463;48.094;7.970;2024-03-06T00:28:29;5.37;;;4.13;;
2408;SDS011;8463;48.094;7.970;2024-03-06T00:30:55;5.40;;;4.90;;
2408;SDS011;8463;48.094;7.970;2024-03-06T00:33:21;4.80;;;4.23;;
2408;SDS011;8463;48.094;7.970;2024-03-06T00:35:49;4.60;;;4.00;;
2408;SDS011;8463;48.094;7.970;2024-03-06T00:38:15;5.00;;;4.13;;
2408;SDS011;8463;48.094;7.970;2024-03-06T00:40:41;9.80;;;3.90;;
2408;SDS011;8463;48.094;7.970;2024-03-06T00:43:06;5.50;;;3.60;;
2408;SDS011;8463;48.094;7.970;2024-03-06T00:45:32;3.73;;;3.37;;
2408;SDS011;8463;48.094;7.970;2024-03-06T00:47:57;4.53;;;4.13;;
2408;SDS011;8463;48.094;7.970;2024-03-06T00:50:23;4.93;;;3.90;;
2408;SDS011;8463;48.094;7.970;2024-03-06T00:52:49;4.37;;;3.97;;
2408;SDS011;8463;48.094;7.970;2024-03-06T00:55:17;4.47;;;4.07;;
2408;SDS011;8463;48.094;7.970;2024-03-06T00:57:43;4.43;;;3.90;;
2408;SDS011;8463;48.094;7.970;2024-03-06T01:00:09;6.60;;;4.13;;
2408;SDS011;8463;48.094;7.970;2024-03-06T01:02:38;4.20;;;3.80;;
2408;SDS011;8463;48.094;7.970;2024-03-06T01:05:04;3.70;;;3.40;;
2408;SDS011;8463;48.094;7.970;2024-03-06T01:07:30;3.63;;;3.30;;
2408;SDS011;8463;48.094;7.970;2024-03-06T01:09:59;3.63;;;3.33;;
2408;SDS011;8463;48.094;7.970;2024-03-06T01:12:25;5.80;;;3.87;;
2408;SDS011;8463;48.094;7.970;2024-03-06T01:14:50;5.80;;;4.90;;
2408;SDS011;8463;48.094;7.970;2024-03-06T01:17:16;4.00;;;3.63;;
2408;SDS011;8463;48.094;7.970;2024-03-06T01:19:42;5.47;;;4.17;;
2408;SDS011;8463;48.094;7.970;2024-03-06T01:22:11;4.90;;;4.30;;
2408;SDS011;8463;48.094;7.970;2024-03-06T01:24:39;6.00;;;3.43;;
2408;SDS011;8463;48.094;7.970;2024-03-06T01:27:05;3.57;;;3.23;;
2408;SDS011;8463;48.094;7.970;2024-03-06T01:29:31;4.00;;;3.17;;
2408;SDS011;8463;48.094;7.970;2024-03-06T01:31:57;4.03;;;3.47;;
2408;SDS011;8463;48.094;7.970;2024-03-06T01:34:23;4.57;;;3.93;;
2408;SDS011;8463;48.094;7.970;2024-03-06T01:36:52;3.50;;;3.20;;
2408;SDS011;8463;48.094;7.970;2024-03-06T01:39:18;5.03;;;4.10;;
2408;SDS011;8463;48.094;7.970;2024-03-06T01:41:44;4.17;;;3.40;;
2408;SDS011;8463;48.094;7.970;2024-03-06T01:44:11;3.50;;;3.20;;
2408;SDS011;8463;48.094;7.970;2024-03-06T01:46:37;4.03;;;3.63;;
2408;SDS011;8463;48.094;7.970;2024-03-06T01:49:03;4.47;;;4.03;;
2408;SDS011;8463;48.094;7.970;2024-03-06T01:51:29;3.43;;;3.00;;
2408;SDS011;8463;48.094;7.970;2024-03-06T01:53:56;3.47;;;3.20;;
2408;SDS011;8463;48.094;7.970;2024-03-06T01:56:22;3.60;;;3.23;;
2408;SDS011;8463;48.094;7.970;2024-03-06T01:58:48;4.43;;;3.73;;
2408;SDS011;8463;48.094;7.970;2024-03-06T02:01:15;4.63;;;3.60;;
2408;SDS011;8463;48.094;7.970;2024-03-06T02:03:42;3.33;;;3.03;;
2408;SDS011;8463;48.094;7.970;2024-03-06T02:06:10;4.97;;;3.50;;
2408;SDS011;8463;48.094;7.970;2024-03-06T02:08:36;3.80;;;3.50;;
2408;SDS011;8463;48.094;7.970;2024-03-06T02:11:02;4.13;;;3.40;;
2408;SDS011;8463;48.094;7.970;2024-03-06T02:13:28;3.90;;;2.90;;
2408;SDS011;8463;48.094;7.970;2024-03-06T02:15:56;3.20;;;3.00;;
2408;SDS011;8463;48.094;7.970;2024-03-06T02:18:23;3.50;;;2.83;;
2408;SDS011;8463;48.094;7.970;2024-03-06T02:20:49;2.53;;;2.33;;
2408;SDS011;8463;48.094;7.970;2024-03-06T02:23:15;2.67;;;2.37;;
2408;SDS011;8463;48.094;7.970;2024-03-06T02:25:43;3.33;;;3.00;;
2408;SDS011;8463;48.094;7.970;2024-03-06T02:28:12;2.40;;;2.13;;
2408;SDS011;8463;48.094;7.970;2024-03-06T02:30:38;4.30;;;2.80;;
2408;SDS011;8463;48.094;7.970;2024-03-06T02:33:04;3.43;;;2.60;;
2408;SDS011;8463;48.094;7.970;2024-03-06T02:35:31;5.40;;;2.73;;
2408;SDS011;8463;48.094;7.970;2024-03-06T02:37:59;2.60;;;2.37;;
2408;SDS011;8463;48.094;7.970;2024-03-06T02:40:25;2.60;;;2.40;;
2408;SDS011;8463;48.094;7.970;2024-03-06T02:42:51;3.20;;;2.90;;
2408;SDS011;8463;48.094;7.970;2024-03-06T02:45:17;2.40;;;2.20;;
2408;SDS011;8463;48.094;7.970;2024-03-06T02:47:43;4.30;;;2.60;;
2408;SDS011;8463;48.094;7.970;2024-03-06T02:50:09;3.73;;;2.40;;
2408;SDS011;8463;48.094;7.970;2024-03-06T02:52:35;3.83;;;1.97;;
2408;SDS011;8463;48.094;7.970;2024-03-06T02:55:01;2.53;;;2.27;;
2408;SDS011;8463;48.094;7.970;2024-03-06T02:57:27;2.83;;;2.20;;
2408;SDS011;8463;48.094;7.970;2024-03-06T02:59:56;1.90;;;1.80;;
2408;SDS011;8463;48.094;7.970;2024-03-06T03:02:22;1.70;;;1.60;;
2408;SDS011;8463;48.094;7.970;2024-03-06T03:04:53;1.87;;;1.67;;
2408;SDS011;8463;48.094;7.970;2024-03-06T03:07:19;3.57;;;2.30;;
2408;SDS011;8463;48.094;7.970;2024-03-06T03:09:44;1.80;;;1.70;;
2408;SDS011;8463;48.094;7.970;2024-03-06T03:12:10;2.07;;;1.97;;
2408;SDS011;8463;48.094;7.970;2024-03-06T03:14:36;2.33;;;2.13;;
2408;SDS011;8463;48.094;7.970;2024-03-06T03:17:04;3.60;;;1.70;;
2408;SDS011;8463;48.094;7.970;2024-03-06T03:19:33;2.20;;;1.97;;
2408;SDS011;8463;48.094;7.970;2024-03-06T03:21:59;4.20;;;1.80;;
2408;SDS011;8463;48.094;7.970;2024-03-06T03:24:25;1.67;;;1.47;;
2408;SDS011;8463;48.094;7.970;2024-03-06T03:26:53;2.67;;;1.77;;
2408;SDS011;8463;48.094;7.970;2024-03-06T03:29:19;2.97;;;2.03;;
2408;SDS011;8463;48.094;7.970;2024-03-06T03:31:46;2.63;;;1.93;;
2408;SDS011;8463;48.094;7.970;2024-03-06T03:34:11;3.23;;;2.03;;
2408;SDS011;8463;48.094;7.970;2024-03-06T03:36:43;1.43;;;1.30;;
2408;SDS011;8463;48.094;7.970;2024-03-06T03:39:12;3.13;;;2.10;;
2408;SDS011;8463;48.094;7.970;2024-03-06T03:41:46;2.00;;;1.80;;
2408;SDS011;8463;48.094;7.970;2024-03-06T03:44:15;2.73;;;1.63;;
2408;SDS011;8463;48.094;7.970;2024-03-06T03:46:43;3.30;;;1.97;;
2408;SDS011;8463;48.094;7.970;2024-03-06T03:49:09;1.33;;;1.23;;
2408;SDS011;8463;48.094;7.970;2024-03-06T03:51:36;2.47;;;1.90;;
2408;SDS011;8463;48.094;7.970;2024-03-06T03:54:03;2.10;;;1.97;;
2408;SDS011;8463;48.094;7.970;2024-03-06T03:56:29;3.23;;;2.87;;
2408;SDS011;8463;48.094;7.970;2024-03-06T03:58:56;2.57;;;1.97;;
2408;SDS011;8463;48.094;7.970;2024-03-06T04:01:23;2.53;;;1.73;;
2408;SDS011;8463;48.094;7.970;2024-03-06T04:03:51;2.53;;;1.63;;
2408;SDS011;8463;48.094;7.970;2024-03-06T04:06:17;2.03;;;1.93;;
2408;SDS011;8463;48.094;7.970;2024-03-06T04:08:43;3.67;;;2.50;;
2408;SDS011;8463;48.094;7.970;2024-03-06T04:11:09;4.03;;;2.57;;
2408;SDS011;8463;48.094;7.970;2024-03-06T04:13:38;5.80;;;2.80;;
2408;SDS011;8463;48.094;7.970;2024-03-06T04:16:04;3.77;;;2.40;;
2408;SDS011;8463;48.094;7.970;2024-03-06T04:18:31;2.93;;;2.43;;
2408;SDS011;8463;48.094;7.970;2024-03-06T04:21:03;4.50;;;2.47;;
2408;SDS011;8463;48.094;7.970;2024-03-06T04:23:30;2.63;;;2.30;;
2408;SDS011;8463;48.094;7.970;2024-03-06T04:25:58;3.80;;;3.27;;
2408;SDS011;8463;48.094;7.970;2024-03-06T04:28:28;3.70;;;2.60;;
2408;SDS011;8463;48.094;7.970;2024-03-06T04:30:54;5.60;;;2.70;;
2408;SDS011;8463;48.094;7.970;2024-03-06T04:33:19;2.10;;;1.87;;
2408;SDS011;8463;48.094;7.970;2024-03-06T04:35:45;4.10;;;2.10;;
2408;SDS011;8463;48.094;7.970;2024-03-06T04:38:11;3.33;;;2.37;;
2408;SDS011;8463;48.094;7.970;2024-03-06T04:40:36;2.83;;;2.50;;
2408;SDS011;8463;48.094;7.970;2024-03-06T04:43:02;1.93;;;1.80;;
2408;SDS011;8463;48.094;7.970;2024-03-06T04:45:28;2.47;;;1.80;;
2408;SDS011;8463;48.094;7.970;2024-03-06T04:47:56;3.10;;;2.07;;
2408;SDS011;8463;48.094;7.970;2024-03-06T04:50:21;2.63;;;2.40;;
2408;SDS011;8463;48.094;7.970;2024-03-06T04:52:47;3.20;;;2.47;;
2408;SDS011;8463;48.094;7.970;2024-03-06T04:55:13;2.90;;;2.60;;
2408;SDS011;8463;48.094;7.970;2024-03-06T04:57:43;2.50;;;2.23;;
2408;SDS011;8463;48.094;7.970;2024-03-06T05:00:10;3.83;;;2.10;;
2408;SDS011;8463;48.094;7.970;2024-03-06T05:02:37;1.97;;;1.73;;
2408;SDS011;8463;48.094;7.970;2024-03-06T05:05:03;2.30;;;2.10;;
2408;SDS011;8463;48.094;7.970;2024-03-06T05:07:29;4.80;;;2.70;;
2408;SDS011;8463;48.094;7.970;2024-03-06T05:09:59;4.03;;;2.50;;
2408;SDS011;8463;48.094;7.970;2024-03-06T05:12:25;2.93;;;2.60;;
2408;SDS011;8463;48.094;7.970;2024-03-06T05:14:52;3.23;;;2.93;;
2408;SDS011;8463;48.094;7.970;2024-03-06T05:17:18;3.10;;;2.80;;
2408;SDS011;8463;48.094;7.970;2024-03-06T05:19:45;2.73;;;2.53;;
2408;SDS011;8463;48.094;7.970;2024-03-06T05:22:12;4.70;;;3.57;;
2408;SDS011;8463;48.094;7.970;2024-03-06T05:24:38;3.30;;;3.00;;
2408;SDS011;8463;48.094;7.970;2024-03-06T05:27:05;3.90;;;3.60;;
2408;SDS011;8463;48.094;7.970;2024-03-06T05:29:30;4.80;;;3.00;;
2408;SDS011;8463;48.094;7.970;2024-03-06T05:31:56;4.50;;;3.17;;
2408;SDS011;8463;48.094;7.970;2024-03-06T05:34:22;3.33;;;3.03;;
2408;SDS011;8463;48.094;7.970;2024-03-06T05:36:48;3.07;;;2.77;;
2408;SDS011;8463;48.094;7.970;2024-03-06T05:39:14;3.07;;;2.77;;
2408;SDS011;8463;48.094;7.970;2024-03-06T05:41:40;3.50;;;2.80;;
2408;SDS011;8463;48.094;7.970;2024-03-06T05:44:07;2.70;;;2.50;;
2408;SDS011;8463;48.094;7.970;2024-03-06T05:46:32;3.40;;;2.37;;
2408;SDS011;8463;48.094;7.970;2024-03-06T05:48:58;1.93;;;1.83;;
2408;SDS011;8463;48.094;7.970;2024-03-06T05:51:24;2.40;;;2.20;;
2408;SDS011;8463;48.094;7.970;2024-03-06T05:53:50;2.63;;;1.97;;
2408;SDS011;8463;48.094;7.970;2024-03-06T05:56:19;2.50;;;1.87;;
2408;SDS011;8463;48.094;7.970;2024-03-06T05:58:45;3.10;;;2.80;;
2408;SDS011;8463;48.094;7.970;2024-03-06T06:01:17;2.80;;;2.57;;
2408;SDS011;8463;48.094;7.970;2024-03-06T06:03:46;2.87;;;2.67;;
2408;SDS011;8463;48.094;7.970;2024-03-06T06:06:15;3.53;;;2.83;;
2408;SDS011;8463;48.094;7.970;2024-03-06T06:08:41;2.73;;;2.53;;
2408;SDS011;8463;48.094;7.970;2024-03-06T06:11:09;2.93;;;2.40;;
2408;SDS011;8463;48.094;7.970;2024-03-06T06:13:35;2.77;;;2.00;;
2408;SDS011;8463;48.094;7.970;2024-03-06T06:16:00;3.50;;;2.13;;
2408;SDS011;8463;48.094;7.970;2024-03-06T06:18:29;2.57;;;2.00;;
2408;SDS011;8463;48.094;7.970;2024-03-06T06:20:55;4.30;;;2.50;;
2408;SDS011;8463;48.094;7.970;2024-03-06T06:23:21;3.07;;;2.77;;
2408;SDS011;8463;48.094;7.970;2024-03-06T06:25:46;2.30;;;1.93;;
2408;SDS011;8463;48.094;7.970;2024-03-06T06:28:12;2.60;;;2.40;;
2408;SDS011;8463;48.094;7.970;2024-03-06T06:30:37;2.50;;;2.30;;
2408;SDS011;8463;48.094;7.970;2024-03-06T06:33:03;3.27;;;2.80;;
2408;SDS011;8463;48.094;7.970;2024-03-06T06:35:29;2.13;;;1.77;;
2408;SDS011;8463;48.094;7.970;2024-03-06T06:37:55;1.60;;;1.50;;
2408;SDS011;8463;48.094;7.970;2024-03-06T06:40:21;2.23;;;2.03;;
2408;SDS011;8463;48.094;7.970;2024-03-06T06:42:47;2.50;;;2.30;;
2408;SDS011;8463;48.094;7.970;2024-03-06T06:45:17;1.97;;;1.77;;
2408;SDS011;8463;48.094;7.970;2024-03-06T06:47:43;2.73;;;2.13;;
2408;SDS011;8463;48.094;7.970;2024-03-06T06:50:12;1.80;;;1.70;;
2408;SDS011;8463;48.094;7.970;2024-03-06T06:52:38;2.73;;;1.80;;
2408;SDS011;8463;48.094;7.970;2024-03-06T06:55:04;1.17;;;1.07;;
2408;SDS011;8463;48.094;7.970;2024-03-06T06:57:31;2.30;;;1.90;;
2408;SDS011;8463;48.094;7.970;2024-03-06T07:00:01;2.07;;;1.70;;
2408;SDS011;8463;48.094;7.970;2024-03-06T07:02:37;2.10;;;1.90;;
2408;SDS011;8463;48.094;7.970;2024-03-06T07:05:04;2.50;;;1.73;;
2408;SDS011;8463;48.094;7.970;2024-03-06T07:07:30;2.20;;;1.47;;
2408;SDS011;8463;48.094;7.970;2024-03-06T07:09:56;1.50;;;1.30;;
2408;SDS011;8463;48.094;7.970;2024-03-06T07:12:22;2.50;;;2.00;;
2408;SDS011;8463;48.094;7.970;2024-03-06T07:14:48;2.27;;;1.90;;
2408;SDS011;8463;48.094;7.970;2024-03-06T07:17:13;3.30;;;2.00;;
2408;SDS011;8463;48.094;7.970;2024-03-06T07:19:39;1.73;;;1.30;;
2408;SDS011;8463;48.094;7.970;2024-03-06T07:22:05;1.30;;;1.20;;
2408;SDS011;8463;48.094;7.970;2024-03-06T07:24:31;1.47;;;1.03;;
2408;SDS011;8463;48.094;7.970;2024-03-06T07:26:56;2.30;;;1.53;;
2408;SDS011;8463;48.094;7.970;2024-03-06T07:29:22;1.40;;;1.30;;
2408;SDS011;8463;48.094;7.970;2024-03-06T07:31:48;2.03;;;1.50;;
2408;SDS011;8463;48.094;7.970;2024-03-06T07:34:13;2.00;;;1.83;;
2408;SDS011;8463;48.094;7.970;2024-03-06T07:36:40;1.30;;;1.17;;
2408;SDS011;8463;48.094;7.970;2024-03-06T07:39:11;1.47;;;1.30;;
2408;SDS011;8463;48.094;7.970;2024-03-06T07:41:40;3.13;;;1.80;;
2408;SDS011;8463;48.094;7.970;2024-03-06T07:44:05;3.70;;;3.10;;
2408;SDS011;8463;48.094;7.970;2024-03-06T07:46:33;1.57;;;1.47;;
2408;SDS011;8463;48.094;7.970;2024-03-06T07:48:59;2.07;;;1.70;;
2408;SDS011;8463;48.094;7.970;2024-03-06T07:51:25;1.93;;;1.60;;
2408;SDS011;8463;48.094;7.970;2024-03-06T07:53:51;2.53;;;1.97;;
2408;SDS011;8463;48.094;7.970;2024-03-06T07:56:18;2.13;;;1.93;;
2408;SDS011;8463;48.094;7.970;2024-03-06T07:58:44;1.60;;;1.43;;
2408;SDS011;8463;48.094;7.970;2024-03-06T08:01:09;2.30;;;1.80;;
2408;SDS011;8463;48.094;7.970;2024-03-06T08:03:36;3.37;;;2.00;;
2408;SDS011;8463;48.094;7.970;2024-03-06T08:06:04;1.70;;;1.60;;
2408;SDS011;8463;48.094;7.970;2024-03-06T08:08:30;2.27;;;1.70;;
2408;SDS011;8463;48.094;7.970;2024-03-06T08:10:56;4.07;;;1.90;;
2408;SDS011;8463;48.094;7.970;2024-03-06T08:13:22;3.13;;;2.40;;
2408;SDS011;8463;48.094;7.970;2024-03-06T08:15:48;3.40;;;1.70;;
2408;SDS011;8463;48.094;7.970;2024-03-06T08:18:13;2.50;;;1.50;;
2408;SDS011;8463;48.094;7.970;2024-03-06T08:20:40;1.17;;;1.10;;
2408;SDS011;8463;48.094;7.970;2024-03-06T08:23:07;1.63;;;1.50;;
2408;SDS011;8463;48.094;7.970;2024-03-06T08:25:34;1.40;;;1.10;;
2408;SDS011;8463;48.094;7.970;2024-03-06T08:28:00;2.30;;;1.17;;
2408;SDS011;8463;48.094;7.970;2024-03-06T08:30:28;1.10;;;1.00;;
2408;SDS011;8463;48.094;7.970;2024-03-06T08:32:55;3.00;;;1.10;;
2408;SDS011;8463;48.094;7.970;2024-03-06T08:35:21;1.03;;;0.93;;
2408;SDS011;8463;48.094;7.970;2024-03-06T08:37:48;0.60;;;0.60;;
2408;SDS011;8463;48.094;7.970;2024-03-06T08:40:17;1.43;;;1.33;;
2408;SDS011;8463;48.094;7.970;2024-03-06T08:42:51;1.47;;;1.13;;
2408;SDS011;8463;48.094;7.970;2024-03-06T08:45:17;4.27;;;2.07;;
2408;SDS011;8463;48.094;7.970;2024-03-06T08:47:43;1.87;;;1.60;;
2408;SDS011;8463;48.094;7.970;2024-03-06T08:50:10;1.67;;;1.53;;
2408;SDS011;8463;48.094;7.970;2024-03-06T08:52:36;2.13;;;1.47;;
2408;SDS011;8463;48.094;7.970;2024-03-06T08:55:02;2.87;;;2.67;;
2408;SDS011;8463;48.094;7.970;2024-03-06T08:57:29;2.80;;;2.60;;
2408;SDS011;8463;48.094;7.970;2024-03-06T08:59:56;1.53;;;1.33;;
2408;SDS011;8463;48.094;7.970;2024-03-06T09:02:22;1.50;;;1.30;;
2408;SDS011;8463;48.094;7.970;2024-03-06T09:04:48;1.10;;;1.00;;
2408;SDS011;8463;48.094;7.970;2024-03-06T09:07:16;1.03;;;1.00;;
2408;SDS011;8463;48.094;7.970;2024-03-06T09:09:42;2.27;;;1.40;;
2408;SDS011;8463;48.094;7.970;2024-03-06T09:12:09;1.70;;;1.60;;
2408;SDS011;8463;48.094;7.970;2024-03-06T09:14:38;1.87;;;1.63;;
2408;SDS011;8463;48.094;7.970;2024-03-06T09:17:04;1.83;;;1.60;;
2408;SDS011;8463;48.094;7.970;2024-03-06T09:19:31;1.73;;;1.40;;
2408;SDS011;8463;48.094;7.970;2024-03-06T09:21:58;2.17;;;1.30;;
2408;SDS011;8463;48.094;7.970;2024-03-06T09:24:24;1.63;;;1.20;;
2408;SDS011;8463;48.094;7.970;2024-03-06T09:26:53;1.10;;;1.03;;
2408;SDS011;8463;48.094;7.970;2024-03-06T09:29:19;1.60;;;1.30;;
2408;SDS011;8463;48.094;7.970;2024-03-06T09:31:45;1.43;;;1.13;;
2408;SDS011;8463;48.094;7.970;2024-03-06T09:34:12;1.40;;;1.30;;
2408;SDS011;8463;48.094;7.970;2024-03-06T09:36:39;1.30;;;1.20;;
2408;SDS011;8463;48.094;7.970;2024-03-06T09:39:14;1.83;;;1.50;;
2408;SDS011;8463;48.094;7.970;2024-03-06T09:41:45;3.00;;;2.00;;
2408;SDS011;8463;48.094;7.970;2024-03-06T09:44:12;4.27;;;2.80;;
2408;SDS011;8463;48.094;7.970;2024-03-06T09:46:42;2.63;;;2.20;;
2408;SDS011;8463;48.094;7.970;2024-03-06T09:49:12;3.67;;;2.50;;
2408;SDS011;8463;48.094;7.970;2024-03-06T09:51:44;2.90;;;2.20;;
2408;SDS011;8463;48.094;7.970;2024-03-06T09:54:16;2.50;;;2.30;;
2408;SDS011;8463;48.094;7.970;2024-03-06T09:56:42;2.40;;;2.20;;
2408;SDS011;8463;48.094;7.970;2024-03-06T09:59:09;3.60;;;2.70;;
2408;SDS011;8463;48.094;7.970;2024-03-06T10:01:39;3.40;;;3.10;;
2408;SDS011;8463;48.094;7.970;2024-03-06T10:04:18;2.53;;;2.00;;
2408;SDS011;8463;48.094;7.970;2024-03-06T10:06:58;5.67;;;2.93;;
2408;SDS011;8463;48.094;7.970;2024-03-06T10:09:25;2.20;;;2.00;;
2408;SDS011;8463;48.094;7.970;2024-03-06T10:11:52;2.63;;;2.43;;
2408;SDS011;8463;48.094;7.970;2024-03-06T10:14:19;1.40;;;1.30;;
2408;SDS011;8463;48.094;7.970;2024-03-06T10:16:54;3.10;;;1.67;;
2408;SDS011;8463;48.094;7.970;2024-03-06T10:19:24;2.60;;;2.40;;
2408;SDS011;8463;48.094;7.970;2024-03-06T10:21:52;2.83;;;1.97;;
2408;SDS011;8463;48.094;7.970;2024-03-06T10:24:22;2.77;;;2.57;;
2408;SDS011;8463;48.094;7.970;2024-03-06T10:26:49;1.67;;;1.57;;
2408;SDS011;8463;48.094;7.970;2024-03-06T10:29:23;1.87;;;1.77;;
2408;SDS011;8463;48.094;7.970;2024-03-06T10:31:54;2.70;;;1.80;;
2408;SDS011;8463;48.094;7.970;2024-03-06T10:34:22;2.27;;;1.40;;
2408;SDS011;8463;48.094;7.970;2024-03-06T10:39:24;3.67;;;3.20;;
2408;SDS011;8463;48.094;7.970;2024-03-06T10:41:54;7.47;;;6.87;;
2408;SDS011;8463;48.094;7.970;2024-03-06T10:44:21;2.00;;;1.77;;
2408;SDS011;8463;48.094;7.970;2024-03-06T10:46:51;2.10;;;2.00;;
2408;SDS011;8463;48.094;7.970;2024-03-06T10:49:34;2.03;;;1.20;;
2408;SDS011;8463;48.094;7.970;2024-03-06T10:52:02;2.93;;;1.50;;
2408;SDS011;8463;48.094;7.970;2024-03-06T10:54:32;1.53;;;1.43;;
2408;SDS011;8463;48.094;7.970;2024-03-06T10:57:00;2.83;;;1.93;;
2408;SDS011;8463;48.094;7.970;2024-03-06T10:59:27;1.90;;;1.70;;
2408;SDS011;8463;48.094;7.970;2024-03-06T11:01:57;1.40;;;1.30;;
2408;SDS011;8463;48.094;7.970;2024-03-06T11:04:27;0.97;;;0.80;;
2408;SDS011;8463;48.094;7.970;2024-03-06T11:06:55;1.13;;;1.03;;
2408;SDS011;8463;48.094;7.970;2024-03-06T11:09:21;1.10;;;1.00;;
2408;SDS011;8463;48.094;7.970;2024-03-06T11:11:48;1.03;;;0.90;;
2408;SDS011;8463;48.094;7.970;2024-03-06T11:14:17;0.90;;;0.90;;
2408;SDS011;8463;48.094;7.970;2024-03-06T11:16:56;1.20;;;1.10;;
2408;SDS011;8463;48.094;7.970;2024-03-06T11:23:10;1.80;;;1.70;;
2408;SDS011;8463;48.094;7.970;2024-03-06T11:28:10;3.10;;;2.20;;
2408;SDS011;8463;48.094;7.970;2024-03-06T11:30:47;1.93;;;1.70;;
2408;SDS011;8463;48.094;7.970;2024-03-06T11:33:19;1.50;;;1.40;;
2408;SDS011;8463;48.094;7.970;2024-03-06T11:41:25;0.80;;;0.80;;
2408;SDS011;8463;48.094;7.970;2024-03-06T11:43:52;0.70;;;0.70;;
2408;SDS011;8463;48.094;7.970;2024-03-06T11:46:20;1.20;;;1.10;;
2408;SDS011;8463;48.094;7.970;2024-03-06T11:48:56;2.20;;;0.93;;
2408;SDS011;8463;48.094;7.970;2024-03-06T11:51:23;1.07;;;1.00;;
2408;SDS011;8463;48.094;7.970;2024-03-06T11:53:49;0.80;;;0.80;;
2408;SDS011;8463;48.094;7.970;2024-03-06T11:56:16;1.17;;;0.90;;
2408;SDS011;8463;48.094;7.970;2024-03-06T11:58:46;1.37;;;1.20;;
2408;SDS011;8463;48.094;7.970;2024-03-06T12:01:12;1.37;;;0.90;;
2408;SDS011;8463;48.094;7.970;2024-03-06T12:03:39;0.90;;;0.73;;
2408;SDS011;8463;48.094;7.970;2024-03-06T12:06:06;1.03;;;0.90;;
2408;SDS011;8463;48.094;7.970;2024-03-06T12:08:33;0.80;;;0.80;;
2408;SDS011;8463;48.094;7.970;2024-03-06T12:11:02;0.80;;;0.60;;
2408;SDS011;8463;48.094;7.970;2024-03-06T12:13:29;0.90;;;0.77;;
2408;SDS011;8463;48.094;7.970;2024-03-06T12:15:55;1.07;;;0.97;;
2408;SDS011;8463;48.094;7.970;2024-03-06T12:18:20;1.97;;;0.90;;
2408;SDS011;8463;48.094;7.970;2024-03-06T12:20:46;0.70;;;0.67;;
2408;SDS011;8463;48.094;7.970;2024-03-06T12:23:18;1.10;;;1.00;;
2408;SDS011;8463;48.094;7.970;2024-03-06T12:26:03;1.80;;;1.43;;
2408;SDS011;8463;48.094;7.970;2024-03-06T12:28:30;2.47;;;1.10;;
2408;SDS011;8463;48.094;7.970;2024-03-06T12:30:55;1.90;;;1.13;;
2408;SDS011;8463;48.094;7.970;2024-03-06T12:33:26;1.47;;;1.33;;
2408;SDS011;8463;48.094;7.970;2024-03-06T12:38:35;2.80;;;1.30;;
2408;SDS011;8463;48.094;7.970;2024-03-06T12:41:01;2.10;;;1.07;;
2408;SDS011;8463;48.094;7.970;2024-03-06T12:43:28;1.97;;;1.80;;
2408;SDS011;8463;48.094;7.970;2024-03-06T12:45:54;2.53;;;1.37;;
2408;SDS011;8463;48.094;7.970;2024-03-06T12:48:21;1.67;;;1.57;;
2408;SDS011;8463;48.094;7.970;2024-03-06T12:50:47;2.20;;;1.33;;
2408;SDS011;8463;48.094;7.970;2024-03-06T12:53:20;1.60;;;1.50;;
2408;SDS011;8463;48.094;7.970;2024-03-06T12:55:47;2.87;;;1.97;;
2408;SDS011;8463;48.094;7.970;2024-03-06T12:58:13;1.67;;;1.57;;
2408;SDS011;8463;48.094;7.970;2024-03-06T13:00:39;1.70;;;1.60;;
2408;SDS011;8463;48.094;7.970;2024-03-06T13:03:05;2.50;;;1.73;;
2408;SDS011;8463;48.094;7.970;2024-03-06T13:05:31;1.67;;;1.40;;
2408;SDS011;8463;48.094;7.970;2024-03-06T13:07:57;2.50;;;1.53;;
2408;SDS011;8463;48.094;7.970;2024-03-06T13:10:24;4.43;;;2.10;;
2408;SDS011;8463;48.094;7.970;2024-03-06T13:12:50;1.87;;;1.40;;
2408;SDS011;8463;48.094;7.970;2024-03-06T13:15:17;1.60;;;1.50;;
2408;SDS011;8463;48.094;7.970;2024-03-06T13:17:43;1.60;;;1.50;;
2408;SDS011;8463;48.094;7.970;2024-03-06T13:20:08;2.90;;;1.57;;
2408;SDS011;8463;48.094;7.970;2024-03-06T13:22:36;2.00;;;1.70;;
2408;SDS011;8463;48.094;7.970;2024-03-06T13:25:02;1.57;;;1.37;;
2408;SDS011;8463;48.094;7.970;2024-03-06T13:27:28;2.30;;;1.67;;
2408;SDS011;8463;48.094;7.970;2024-03-06T13:29:54;2.70;;;2.00;;
2408;SDS011;8463;48.094;7.970;2024-03-06T13:32:20;2.10;;;1.83;;
2408;SDS011;8463;48.094;7.970;2024-03-06T13:34:45;2.77;;;1.63;;
2408;SDS011;8463;48.094;7.970;2024-03-06T13:37:11;2.20;;;1.60;;
2408;SDS011;8463;48.094;7.970;2024-03-06T13:39:37;2.27;;;2.07;;
2408;SDS011;8463;48.094;7.970;2024-03-06T13:42:04;3.00;;;2.30;;
2408;SDS011;8463;48.094;7.970;2024-03-06T13:44:31;2.77;;;1.83;;
2408;SDS011;8463;48.094;7.970;2024-03-06T13:46:56;2.33;;;2.13;;
2408;SDS011;8463;48.094;7.970;2024-03-06T13:49:34;2.23;;;1.70;;
2408;SDS011;8463;48.094;7.970;2024-03-06T13:52:04;1.80;;;1.70;;
2408;SDS011;8463;48.094;7.970;2024-03-06T13:54:30;2.17;;;1.50;;
2408;SDS011;8463;48.094;7.970;2024-03-06T13:56:56;2.40;;;1.53;;
2408;SDS011;8463;48.094;7.970;2024-03-06T13:59:35;2.00;;;1.80;;
2408;SDS011;8463;48.094;7.970;2024-03-06T14:02:02;1.80;;;1.50;;
2408;SDS011;8463;48.094;7.970;2024-03-06T14:04:33;3.30;;;1.90;;
2408;SDS011;8463;48.094;7.970;2024-03-06T14:07:00;1.77;;;1.63;;
2408;SDS011;8463;48.094;7.970;2024-03-06T14:09:26;1.67;;;1.50;;
2408;SDS011;8463;48.094;7.970;2024-03-06T14:11:52;3.40;;;1.90;;
2408;SDS011;8463;48.094;7.970;2024-03-06T14:14:19;2.90;;;2.10;;
2408;SDS011;8463;48.094;7.970;2024-03-06T14:16:45;1.93;;;1.30;;
2408;SDS011;8463;48.094;7.970;2024-03-06T14:19:11;1.90;;;1.80;;
2408;SDS011;8463;48.094;7.970;2024-03-06T14:21:37;2.10;;;1.90;;
2408;SDS011;8463;48.094;7.970;2024-03-06T14:24:03;2.23;;;1.73;;
2408;SDS011;8463;48.094;7.970;2024-03-06T14:26:31;1.93;;;1.57;;
2408;SDS011;8463;48.094;7.970;2024-03-06T14:28:57;2.70;;;2.10;;
2408;SDS011;8463;48.094;7.970;2024-03-06T14:31:24;1.73;;;1.43;;
2408;SDS011;8463;48.094;7.970;2024-03-06T14:33:49;2.13;;;1.70;;
2408;SDS011;8463;48.094;7.970;2024-03-06T14:36:15;3.47;;;2.00;;
2408;SDS011;8463;48.094;7.970;2024-03-06T14:38:42;3.47;;;2.10;;
2408;SDS011;8463;48.094;7.970;2024-03-06T14:41:09;2.30;;;2.10;;
2408;SDS011;8463;48.094;7.970;2024-03-06T14:43:35;2.57;;;1.70;;
2408;SDS011;8463;48.094;7.970;2024-03-06T14:46:03;2.47;;;1.83;;
2408;SDS011;8463;48.094;7.970;2024-03-06T14:48:33;3.23;;;2.03;;
2408;SDS011;8463;48.094;7.970;2024-03-06T14:50:59;2.97;;;1.87;;
2408;SDS011;8463;48.094;7.970;2024-03-06T14:53:26;1.70;;;1.60;;
2408;SDS011;8463;48.094;7.970;2024-03-06T14:55:51;2.20;;;1.70;;
2408;SDS011;8463;48.094;7.970;2024-03-06T14:58:18;2.00;;;1.70;;
2408;SDS011;8463;48.094;7.970;2024-03-06T15:00:43;2.47;;;2.30;;
2408;SDS011;8463;48.094;7.970;2024-03-06T15:03:09;2.20;;;2.00;;
2408;SDS011;8463;48.094;7.970;2024-03-06T15:05:35;2.70;;;1.93;;
2408;SDS011;8463;48.094;7.970;2024-03-06T15:08:01;2.10;;;1.70;;
2408;SDS011;8463;48.094;7.970;2024-03-06T15:10:29;3.83;;;1.40;;
2408;SDS011;8463;48.094;7.970;2024-03-06T15:12:57;2.93;;;2.03;;
2408;SDS011;8463;48.094;7.970;2024-03-06T15:15:23;1.70;;;1.60;;
2408;SDS011;8463;48.094;7.970;2024-03-06T15:17:49;2.70;;;1.47;;
2408;SDS011;8463;48.094;7.970;2024-03-06T15:20:15;2.50;;;1.90;;
2408;SDS011;8463;48.094;7.970;2024-03-06T15:22:42;2.13;;;1.60;;
2408;SDS011;8463;48.094;7.970;2024-03-06T15:25:12;5.43;;;2.17;;
2408;SDS011;8463;48.094;7.970;2024-03-06T15:27:38;3.00;;;1.80;;
2408;SDS011;8463;48.094;7.970;2024-03-06T15:30:05;2.70;;;1.53;;
2408;SDS011;8463;48.094;7.970;2024-03-06T15:32:36;2.83;;;1.73;;